sensor_id;sensor_type;location;lat;lon;timestamp;pressure;altitude;pressure_sealevel;temperature;humidity
32873;BME280;19224;52.462;16.898;2024-02-26T00:01:19;99309.69;;;7.52;100.00
32873;BME280;19224;52.462;16.898;2024-02-26T00:03:51;99310.06;;;7.44;100.00
32873;BME280;19224;52.462;16.898;2024-02-26T00:06:22;99304.44;;;7.40;100.00
32873;BME280;19224;52.462;16.898;2024-02-26T00:08:52;99298.70;;;7.21;100.00
32873;BME280;19224;52.462;16.898;2024-02-26T00:11:22;99306.94;;;7.16;100.00
32873;BME280;19224;52.462;16.898;2024-02-26T00:13:52;99308.41;;;7.23;100.00
32873;BME280;19224;52.462;16.898;2024-02-26T00:16:23;99307.94;;;7.32;100.00
32873;BME280;19224;52.462;16.898;2024-02-26T00:18:53;99304.87;;;7.31;100.00
32873;BME280;19224;52.462;16.898;2024-02-26T00:21:24;99306.55;;;7.15;100.00
32873;BME280;19224;52.462;16.898;2024-02-26T00:23:54;99303.08;;;7.13;100.00
32873;BME280;19224;52.462;16.898;2024-02-26T00:26:25;99301.04;;;7.18;100.00
32873;BME280;19224;52.462;16.898;2024-02-26T00:28:56;99305.05;;;7.18;100.00
32873;BME280;19224;52.462;16.898;2024-02-26T00:31:26;99310.02;;;7.17;100.00
32873;BME280;19224;52.462;16.898;2024-02-26T00:33:56;99310.98;;;7.06;100.00
32873;BME280;19224;52.462;16.898;2024-02-26T00:36:27;99308.73;;;6.98;100.00
32873;BME280;19224;52.462;16.898;2024-02-26T00:38:57;99311.95;;;6.96;100.00
32873;BME280;19224;52.462;16.898;2024-02-26T00:41:28;99304.22;;;6.90;100.00
32873;BME280;19224;52.462;16.898;2024-02-26T00:43:58;99303.94;;;6.86;100.00
32873;BME280;19224;52.462;16.898;2024-02-26T00:46:29;99297.80;;;6.84;100.00
32873;BME280;19224;52.462;16.898;2024-02-26T00:48:59;99297.70;;;6.67;100.00
32873;BME280;19224;52.462;16.898;2024-02-26T00:51:31;99298.56;;;6.67;100.00
32873;BME280;19224;52.462;16.898;2024-02-26T00:54:02;99293.65;;;6.77;100.00
32873;BME280;19224;52.462;16.898;2024-02-26T00:56:32;99303.48;;;6.86;100.00
32873;BME280;19224;52.462;16.898;2024-02-26T00:59:02;99303.88;;;6.87;100.00
32873;BME280;19224;52.462;16.898;2024-02-26T01:01:33;99304.84;;;6.76;100.00
32873;BME280;19224;52.462;16.898;2024-02-26T01:04:04;99301.44;;;6.63;100.00
32873;BME280;19224;52.462;16.898;2024-02-26T01:06:36;99294.84;;;6.51;100.00
32873;BME280;19224;52.462;16.898;2024-02-26T01:09:07;99295.98;;;6.46;100.00
32873;BME280;19224;52.462;16.898;2024-02-26T01:11:39;99302.93;;;6.40;100.00
32873;BME280;19224;52.462;16.898;2024-02-26T01:14:10;99304.80;;;6.28;100.00
32873;BME280;19224;52.462;16.898;2024-02-26T01:16:40;99306.82;;;6.23;100.00
32873;BME280;19224;52.462;16.898;2024-02-26T01:19:10;99311.48;;;6.28;100.00
32873;BME280;19224;52.462;16.898;2024-02-26T01:21:41;99304.14;;;6.13;100.00
32873;BME280;19224;52.462;16.898;2024-02-26T01:24:11;99306.48;;;6.20;100.00
32873;BME280;19224;52.462;16.898;2024-02-26T01:26:41;99300.44;;;6.15;100.00
32873;BME280;19224;52.462;16.898;2024-02-26T01:29:11;99307.21;;;6.14;100.00
32873;BME280;19224;52.462;16.898;2024-02-26T01:31:41;99304.59;;;6.12;100.00
32873;BME280;19224;52.462;16.898;2024-02-26T01:34:12;99304.52;;;6.04;100.00
32873;BME280;19224;52.462;16.898;2024-02-26T01:36:43;99299.04;;;6.07;100.00
32873;BME280;19224;52.462;16.898;2024-02-26T01:39:14;99300.97;;;6.03;100.00
32873;BME280;19224;52.462;16.898;2024-02-26T01:41:44;99297.05;;;6.02;100.00
32873;BME280;19224;52.462;16.898;2024-02-26T01:44:14;99304.56;;;5.92;100.00
32873;BME280;19224;52.462;16.898;2024-02-26T01:46:46;99299.52;;;5.96;100.00
32873;BME280;19224;52.462;16.898;2024-02-26T01:49:17;99302.48;;;5.79;100.00
32873;BME280;19224;52.462;16.898;2024-02-26T01:51:48;99299.41;;;5.88;100.00
32873;BME280;19224;52.462;16.898;2024-02-26T01:54:19;99300.03;;;5.84;100.00
32873;BME280;19224;52.462;16.898;2024-02-26T01:56:50;99299.30;;;5.91;100.00
32873;BME280;19224;52.462;16.898;2024-02-26T01:59:21;99301.58;;;5.90;100.00
32873;BME280;19224;52.462;16.898;2024-02-26T02:01:56;99300.23;;;5.90;100.00
32873;BME280;19224;52.462;16.898;2024-02-26T02:04:27;99299.14;;;5.84;100.00
32873;BME280;19224;52.462;16.898;2024-02-26T02:06:59;99300.95;;;5.72;100.00
32873;BME280;19224;52.462;16.898;2024-02-26T02:09:30;99305.47;;;5.60;100.00
32873;BME280;19224;52.462;16.898;2024-02-26T02:12:02;99311.26;;;5.59;100.00
32873;BME280;19224;52.462;16.898;2024-02-26T02:14:33;99317.08;;;5.59;100.00
32873;BME280;19224;52.462;16.898;2024-02-26T02:17:03;99310.86;;;5.37;100.00
32873;BME280;19224;52.462;16.898;2024-02-26T02:19:34;99305.00;;;5.27;100.00
32873;BME280;19224;52.462;16.898;2024-02-26T02:22:04;99310.87;;;5.25;100.00
32873;BME280;19224;52.462;16.898;2024-02-26T02:24:35;99306.11;;;5.22;100.00
32873;BME280;19224;52.462;16.898;2024-02-26T02:27:06;99309.56;;;5.14;100.00
32873;BME280;19224;52.462;16.898;2024-02-26T02:29:37;99310.84;;;5.04;100.00
32873;BME280;19224;52.462;16.898;2024-02-26T02:32:08;99306.97;;;5.01;100.00
32873;BME280;19224;52.462;16.898;2024-02-26T02:34:39;99307.84;;;4.90;100.00
32873;BME280;19224;52.462;16.898;2024-02-26T02:37:10;99305.98;;;4.92;100.00
32873;BME280;19224;52.462;16.898;2024-02-26T02:39:41;99307.37;;;5.02;100.00
32873;BME280;19224;52.462;16.898;2024-02-26T02:42:12;99300.40;;;5.09;100.00
32873;BME280;19224;52.462;16.898;2024-02-26T02:44:42;99301.83;;;5.18;100.00
32873;BME280;19224;52.462;16.898;2024-02-26T02:47:13;99300.98;;;5.17;100.00
32873;BME280;19224;52.462;16.898;2024-02-26T02:49:43;99300.90;;;5.19;100.00
32873;BME280;19224;52.462;16.898;2024-02-26T02:52:14;99298.66;;;4.97;100.00
32873;BME280;19224;52.462;16.898;2024-02-26T02:54:44;99303.36;;;4.90;100.00
32873;BME280;19224;52.462;16.898;2024-02-26T02:57:16;99294.15;;;4.87;100.00
32873;BME280;19224;52.462;16.898;2024-02-26T02:59:47;99288.23;;;4.91;100.00
32873;BME280;19224;52.462;16.898;2024-02-26T03:02:17;99280.38;;;4.98;100.00
32873;BME280;19224;52.462;16.898;2024-02-26T03:04:48;99279.33;;;5.13;100.00
32873;BME280;19224;52.462;16.898;2024-02-26T03:07:18;99276.69;;;5.02;100.00
32873;BME280;19224;52.462;16.898;2024-02-26T03:09:48;99277.02;;;5.04;100.00
32873;BME280;19224;52.462;16.898;2024-02-26T03:12:18;99273.89;;;4.93;100.00
32873;BME280;19224;52.462;16.898;2024-02-26T03:14:49;99277.09;;;4.91;100.00
32873;BME280;19224;52.462;16.898;2024-02-26T03:17:20;99283.42;;;4.77;100.00
32873;BME280;19224;52.462;16.898;2024-02-26T03:19:53;99278.19;;;4.86;100.00
32873;BME280;19224;52.462;16.898;2024-02-26T03:22:30;99283.70;;;4.93;100.00
32873;BME280;19224;52.462;16.898;2024-02-26T03:24:55;99290.33;;;4.94;100.00
32873;BME280;19224;52.462;16.898;2024-02-26T03:27:26;99280.00;;;4.85;100.00
32873;BME280;19224;52.462;16.898;2024-02-26T03:29:56;99291.30;;;4.80;100.00
32873;BME280;19224;52.462;16.898;2024-02-26T03:32:27;99277.27;;;4.64;100.00
32873;BME280;19224;52.462;16.898;2024-02-26T03:34:57;99281.38;;;4.61;100.00
32873;BME280;19224;52.462;16.898;2024-02-26T03:37:33;99281.34;;;4.63;100.00
32873;BME280;19224;52.462;16.898;2024-02-26T03:40:04;99286.77;;;4.48;100.00
32873;BME280;19224;52.462;16.898;2024-02-26T03:42:34;99283.05;;;4.52;100.00
32873;BME280;19224;52.462;16.898;2024-02-26T03:45:06;99284.10;;;4.48;100.00
32873;BME280;19224;52.462;16.898;2024-02-26T03:47:39;99280.38;;;4.52;100.00
32873;BME280;19224;52.462;16.898;2024-02-26T03:50:10;99286.03;;;4.56;100.00
32873;BME280;19224;52.462;16.898;2024-02-26T03:52:41;99287.86;;;4.54;100.00
32873;BME280;19224;52.462;16.898;2024-02-26T03:55:13;99280.91;;;4.50;100.00
32873;BME280;19224;52.462;16.898;2024-02-26T03:57:43;99282.29;;;4.49;100.00
32873;BME280;19224;52.462;16.898;2024-02-26T04:00:14;99288.50;;;4.49;100.00
32873;BME280;19224;52.462;16.898;2024-02-26T04:02:46;99291.98;;;4.40;100.00
32873;BME280;19224;52.462;16.898;2024-02-26T04:05:17;99292.30;;;4.31;100.00
32873;BME280;19224;52.462;16.898;2024-02-26T04:07:47;99291.66;;;4.24;100.00
32873;BME280;19224;52.462;16.898;2024-02-26T04:10:17;99290.23;;;4.14;100.00
32873;BME280;19224;52.462;16.898;2024-02-26T04:12:48;99292.83;;;4.16;100.00
32873;BME280;19224;52.462;16.898;2024-02-26T04:15:18;99292.37;;;4.16;100.00
32873;BME280;19224;52.462;16.898;2024-02-26T04:17:49;99295.81;;;4.20;100.00
32873;BME280;19224;52.462;16.898;2024-02-26T04:20:20;99293.06;;;4.34;100.00
32873;BME280;19224;52.462;16.898;2024-02-26T04:22:50;99301.15;;;4.31;100.00
32873;BME280;19224;52.462;16.898;2024-02-26T04:25:22;99290.85;;;4.34;100.00
32873;BME280;19224;52.462;16.898;2024-02-26T04:27:52;99294.05;;;4.43;100.00
32873;BME280;19224;52.462;16.898;2024-02-26T04:30:22;99290.05;;;4.43;100.00
32873;BME280;19224;52.462;16.898;2024-02-26T04:32:53;99300.70;;;4.56;100.00
32873;BME280;19224;52.462;16.898;2024-02-26T04:35:23;99306.59;;;4.64;100.00
32873;BME280;19224;52.462;16.898;2024-02-26T04:37:53;99306.78;;;4.71;100.00
32873;BME280;19224;52.462;16.898;2024-02-26T04:40:24;99301.16;;;4.78;100.00
32873;BME280;19224;52.462;16.898;2024-02-26T04:42:55;99302.38;;;4.70;100.00
32873;BME280;19224;52.462;16.898;2024-02-26T04:45:26;99301.90;;;4.70;100.00
32873;BME280;19224;52.462;16.898;2024-02-26T04:48:01;99299.84;;;4.67;100.00
32873;BME280;19224;52.462;16.898;2024-02-26T04:50:31;99299.40;;;4.66;100.00
32873;BME280;19224;52.462;16.898;2024-02-26T04:53:01;99308.45;;;4.62;100.00
32873;BME280;19224;52.462;16.898;2024-02-26T04:55:31;99304.49;;;4.60;100.00
32873;BME280;19224;52.462;16.898;2024-02-26T04:58:01;99309.95;;;4.58;100.00
32873;BME280;19224;52.462;16.898;2024-02-26T05:00:32;99301.02;;;4.58;100.00
32873;BME280;19224;52.462;16.898;2024-02-26T05:03:05;99297.91;;;4.59;100.00
32873;BME280;19224;52.462;16.898;2024-02-26T05:05:36;99301.91;;;4.59;100.00
32873;BME280;19224;52.462;16.898;2024-02-26T05:08:07;99305.78;;;4.51;100.00
32873;BME280;19224;52.462;16.898;2024-02-26T05:10:38;99304.21;;;4.45;100.00
32873;BME280;19224;52.462;16.898;2024-02-26T05:13:10;99306.59;;;4.64;100.00
32873;BME280;19224;52.462;16.898;2024-02-26T05:15:41;99308.10;;;4.82;100.00
32873;BME280;19224;52.462;16.898;2024-02-26T05:18:11;99304.34;;;4.88;100.00
32873;BME280;19224;52.462;16.898;2024-02-26T05:20:41;99297.05;;;4.93;100.00
32873;BME280;19224;52.462;16.898;2024-02-26T05:23:12;99302.10;;;4.89;100.00
32873;BME280;19224;52.462;16.898;2024-02-26T05:25:42;99299.67;;;4.94;100.00
32873;BME280;19224;52.462;16.898;2024-02-26T05:28:14;99299.28;;;5.03;100.00
32873;BME280;19224;52.462;16.898;2024-02-26T05:30:49;99302.54;;;5.11;100.00
32873;BME280;19224;52.462;16.898;2024-02-26T05:33:19;99307.30;;;5.15;100.00
32873;BME280;19224;52.462;16.898;2024-02-26T05:35:49;99315.03;;;5.11;100.00
32873;BME280;19224;52.462;16.898;2024-02-26T05:38:20;99321.27;;;5.10;100.00
32873;BME280;19224;52.462;16.898;2024-02-26T05:40:50;99319.38;;;5.02;100.00
32873;BME280;19224;52.462;16.898;2024-02-26T05:43:21;99316.98;;;5.06;100.00
32873;BME280;19224;52.462;16.898;2024-02-26T05:45:51;99326.20;;;5.09;100.00
32873;BME280;19224;52.462;16.898;2024-02-26T05:48:22;99330.22;;;4.97;100.00
32873;BME280;19224;52.462;16.898;2024-02-26T05:50:52;99342.86;;;5.04;100.00
32873;BME280;19224;52.462;16.898;2024-02-26T05:53:23;99347.92;;;5.00;100.00
32873;BME280;19224;52.462;16.898;2024-02-26T05:55:53;99354.13;;;5.12;100.00
32873;BME280;19224;52.462;16.898;2024-02-26T05:58:43;99343.45;;;5.12;100.00
32873;BME280;19224;52.462;16.898;2024-02-26T06:01:15;99347.73;;;5.16;100.00
32873;BME280;19224;52.462;16.898;2024-02-26T06:03:45;99344.00;;;5.31;100.00
32873;BME280;19224;52.462;16.898;2024-02-26T06:06:16;99340.94;;;5.30;100.00
32873;BME280;19224;52.462;16.898;2024-02-26T06:08:50;99329.91;;;5.28;100.00
32873;BME280;19224;52.462;16.898;2024-02-26T06:11:21;99332.34;;;5.34;100.00
32873;BME280;19224;52.462;16.898;2024-02-26T06:13:51;99330.70;;;5.41;100.00
32873;BME280;19224;52.462;16.898;2024-02-26T06:16:22;99330.63;;;5.43;100.00
32873;BME280;19224;52.462;16.898;2024-02-26T06:18:52;99340.81;;;5.55;100.00
32873;BME280;19224;52.462;16.898;2024-02-26T06:21:23;99345.69;;;5.67;100.00
32873;BME280;19224;52.462;16.898;2024-02-26T06:23:53;99335.55;;;5.75;100.00
32873;BME280;19224;52.462;16.898;2024-02-26T06:26:23;99340.78;;;5.78;100.00
32873;BME280;19224;52.462;16.898;2024-02-26T06:28:56;99341.48;;;5.83;100.00
32873;BME280;19224;52.462;16.898;2024-02-26T06:31:26;99342.31;;;5.95;100.00
32873;BME280;19224;52.462;16.898;2024-02-26T06:33:56;99354.20;;;5.98;100.00
32873;BME280;19224;52.462;16.898;2024-02-26T06:36:27;99351.40;;;5.91;100.00
32873;BME280;19224;52.462;16.898;2024-02-26T06:39:00;99351.00;;;5.90;100.00
32873;BME280;19224;52.462;16.898;2024-02-26T06:41:31;99349.55;;;6.03;100.00
32873;BME280;19224;52.462;16.898;2024-02-26T06:44:01;99345.78;;;5.97;100.00
32873;BME280;19224;52.462;16.898;2024-02-26T06:46:32;99354.71;;;5.86;100.00
32873;BME280;19224;52.462;16.898;2024-02-26T06:49:03;99348.43;;;5.87;100.00
32873;BME280;19224;52.462;16.898;2024-02-26T06:51:33;99341.00;;;6.05;100.00
32873;BME280;19224;52.462;16.898;2024-02-26T06:54:04;99344.48;;;6.17;100.00
32873;BME280;19224;52.462;16.898;2024-02-26T06:56:34;99348.34;;;6.10;100.00
32873;BME280;19224;52.462;16.898;2024-02-26T06:59:07;99349.50;;;6.24;100.00
32873;BME280;19224;52.462;16.898;2024-02-26T07:01:36;99344.84;;;6.19;100.00
32873;BME280;19224;52.462;16.898;2024-02-26T07:04:07;99350.81;;;6.46;100.00
32873;BME280;19224;52.462;16.898;2024-02-26T07:06:39;99356.88;;;6.69;100.00
32873;BME280;19224;52.462;16.898;2024-02-26T07:09:10;99357.02;;;6.66;100.00
32873;BME280;19224;52.462;16.898;2024-02-26T07:11:41;99357.61;;;6.63;100.00
32873;BME280;19224;52.462;16.898;2024-02-26T07:14:15;99357.66;;;6.81;100.00
32873;BME280;19224;52.462;16.898;2024-02-26T07:16:45;99359.98;;;6.89;100.00
32873;BME280;19224;52.462;16.898;2024-02-26T07:19:15;99358.99;;;6.91;100.00
32873;BME280;19224;52.462;16.898;2024-02-26T07:21:47;99360.05;;;7.07;100.00
32873;BME280;19224;52.462;16.898;2024-02-26T07:24:18;99359.84;;;7.11;100.00
32873;BME280;19224;52.462;16.898;2024-02-26T07:26:48;99357.84;;;7.25;100.00
32873;BME280;19224;52.462;16.898;2024-02-26T07:29:18;99363.66;;;7.34;100.00
32873;BME280;19224;52.462;16.898;2024-02-26T07:31:48;99359.31;;;7.32;100.00
32873;BME280;19224;52.462;16.898;2024-02-26T07:34:18;99354.59;;;7.18;100.00
32873;BME280;19224;52.462;16.898;2024-02-26T07:36:49;99358.88;;;7.22;100.00
32873;BME280;19224;52.462;16.898;2024-02-26T07:39:19;99362.90;;;7.22;100.00
32873;BME280;19224;52.462;16.898;2024-02-26T07:41:49;99363.56;;;7.17;100.00
32873;BME280;19224;52.462;16.898;2024-02-26T07:44:20;99362.62;;;7.18;100.00
32873;BME280;19224;52.462;16.898;2024-02-26T07:46:51;99357.68;;;7.09;100.00
32873;BME280;19224;52.462;16.898;2024-02-26T07:49:21;99362.22;;;7.17;100.00
32873;BME280;19224;52.462;16.898;2024-02-26T07:51:51;99353.36;;;7.07;100.00
32873;BME280;19224;52.462;16.898;2024-02-26T07:54:21;99353.85;;;7.15;100.00
32873;BME280;19224;52.462;16.898;2024-02-26T07:56:52;99354.04;;;7.20;100.00
32873;BME280;19224;52.462;16.898;2024-02-26T07:59:22;99357.23;;;7.28;100.00
32873;BME280;19224;52.462;16.898;2024-02-26T08:01:54;99365.27;;;7.28;100.00
32873;BME280;19224;52.462;16.898;2024-02-26T08:04:25;99369.27;;;7.38;100.00
32873;BME280;19224;52.462;16.898;2024-02-26T08:06:57;99382.98;;;7.41;100.00
32873;BME280;19224;52.462;16.898;2024-02-26T08:09:28;99378.30;;;7.54;100.00
32873;BME280;19224;52.462;16.898;2024-02-26T08:11:58;99387.01;;;7.59;100.00
32873;BME280;19224;52.462;16.898;2024-02-26T08:14:29;99384.71;;;7.79;100.00
32873;BME280;19224;52.462;16.898;2024-02-26T08:17:04;99385.79;;;7.93;100.00
32873;BME280;19224;52.462;16.898;2024-02-26T08:19:34;99386.02;;;7.97;100.00
32873;BME280;19224;52.462;16.898;2024-02-26T08:22:05;99389.70;;;8.13;100.00
32873;BME280;19224;52.462;16.898;2024-02-26T08:24:35;99389.94;;;8.17;100.00
32873;BME280;19224;52.462;16.898;2024-02-26T08:27:05;99383.93;;;8.22;100.00
32873;BME280;19224;52.462;16.898;2024-02-26T08:29:35;99387.50;;;8.48;100.00
32873;BME280;19224;52.462;16.898;2024-02-26T08:32:07;99386.48;;;8.59;100.00
32873;BME280;19224;52.462;16.898;2024-02-26T08:34:39;99386.23;;;8.72;100.00
32873;BME280;19224;52.462;16.898;2024-02-26T08:37:13;99392.00;;;8.90;100.00
32873;BME280;19224;52.462;16.898;2024-02-26T08:39:43;99395.77;;;9.03;100.00
32873;BME280;19224;52.462;16.898;2024-02-26T08:42:14;99392.99;;;9.13;100.00
32873;BME280;19224;52.462;16.898;2024-02-26T08:44:45;99389.81;;;9.14;100.00
32873;BME280;19224;52.462;16.898;2024-02-26T08:47:15;99393.67;;;9.25;100.00
32873;BME280;19224;52.462;16.898;2024-02-26T08:49:46;99388.66;;;9.35;100.00
32873;BME280;19224;52.462;16.898;2024-02-26T08:52:17;99389.27;;;9.48;100.00
32873;BME280;19224;52.462;16.898;2024-02-26T08:54:47;99388.20;;;9.59;100.00
32873;BME280;19224;52.462;16.898;2024-02-26T08:57:18;99387.24;;;9.60;100.00
32873;BME280;19224;52.462;16.898;2024-02-26T08:59:48;99389.11;;;9.66;100.00
32873;BME280;19224;52.462;16.898;2024-02-26T09:02:19;99396.88;;;9.79;100.00
32873;BME280;19224;52.462;16.898;2024-02-26T09:04:49;99397.77;;;9.80;100.00
32873;BME280;19224;52.462;16.898;2024-02-26T09:07:22;99397.02;;;9.85;100.00
32873;BME280;19224;52.462;16.898;2024-02-26T09:09:52;99391.19;;;9.77;100.00
32873;BME280;19224;52.462;16.898;2024-02-26T09:12:22;99394.69;;;9.79;100.00
32873;BME280;19224;52.462;16.898;2024-02-26T09:14:53;99393.34;;;9.79;100.00
32873;BME280;19224;52.462;16.898;2024-02-26T09:17:24;99394.33;;;9.85;100.00
32873;BME280;19224;52.462;16.898;2024-02-26T09:19:55;99396.17;;;10.00;100.00
32873;BME280;19224;52.462;16.898;2024-02-26T09:22:25;99400.70;;;10.15;100.00
32873;BME280;19224;52.462;16.898;2024-02-26T09:24:55;99391.59;;;10.17;100.00
32873;BME280;19224;52.462;16.898;2024-02-26T09:27:26;99390.77;;;10.31;100.00
32873;BME280;19224;52.462;16.898;2024-02-26T09:29:56;99388.63;;;10.44;100.00
32873;BME280;19224;52.462;16.898;2024-02-26T09:32:26;99394.72;;;10.55;100.00
32873;BME280;19224;52.462;16.898;2024-02-26T09:34:58;99392.55;;;10.68;100.00
32873;BME280;19224;52.462;16.898;2024-02-26T09:37:29;99392.67;;;10.74;100.00
32873;BME280;19224;52.462;16.898;2024-02-26T09:39:59;99395.62;;;10.92;100.00
32873;BME280;19224;52.462;16.898;2024-02-26T09:42:31;99391.74;;;10.82;100.00
32873;BME280;19224;52.462;16.898;2024-02-26T09:45:06;99383.50;;;10.92;100.00
32873;BME280;19224;52.462;16.898;2024-02-26T09:47:39;99389.63;;;10.87;100.00
32873;BME280;19224;52.462;16.898;2024-02-26T09:50:10;99381.68;;;10.99;100.00
32873;BME280;19224;52.462;16.898;2024-02-26T09:52:48;99382.75;;;11.04;100.00
32873;BME280;19224;52.462;16.898;2024-02-26T09:55:25;99387.19;;;11.33;100.00
32873;BME280;19224;52.462;16.898;2024-02-26T09:57:55;99386.84;;;11.46;100.00
32873;BME280;19224;52.462;16.898;2024-02-26T10:00:27;99392.59;;;11.54;100.00
32873;BME280;19224;52.462;16.898;2024-02-26T10:03:09;99389.73;;;11.64;100.00
32873;BME280;19224;52.462;16.898;2024-02-26T10:05:44;99393.97;;;11.82;100.00
32873;BME280;19224;52.462;16.898;2024-02-26T10:08:15;99386.55;;;11.85;100.00
32873;BME280;19224;52.462;16.898;2024-02-26T10:10:48;99393.26;;;12.06;100.00
32873;BME280;19224;52.462;16.898;2024-02-26T10:13:19;99386.34;;;12.21;99.68
32873;BME280;19224;52.462;16.898;2024-02-26T10:15:51;99383.09;;;12.23;98.23
32873;BME280;19224;52.462;16.898;2024-02-26T10:18:22;99377.25;;;12.36;98.25
32873;BME280;19224;52.462;16.898;2024-02-26T10:21:04;99382.97;;;12.51;97.39
32873;BME280;19224;52.462;16.898;2024-02-26T10:23:35;99390.30;;;12.56;96.53
32873;BME280;19224;52.462;16.898;2024-02-26T10:26:06;99388.64;;;12.61;96.01
32873;BME280;19224;52.462;16.898;2024-02-26T10:28:44;99391.95;;;12.71;95.46
32873;BME280;19224;52.462;16.898;2024-02-26T10:31:15;99388.84;;;12.77;95.60
32873;BME280;19224;52.462;16.898;2024-02-26T10:33:50;99386.84;;;12.93;95.05
32873;BME280;19224;52.462;16.898;2024-02-26T10:36:23;99392.16;;;13.07;94.51
32873;BME280;19224;52.462;16.898;2024-02-26T10:38:58;99387.32;;;13.12;93.18
32873;BME280;19224;52.462;16.898;2024-02-26T10:41:32;99390.52;;;13.24;93.33
32873;BME280;19224;52.462;16.898;2024-02-26T10:44:05;99383.73;;;13.37;93.11
32873;BME280;19224;52.462;16.898;2024-02-26T10:46:43;99382.20;;;13.40;92.14
32873;BME280;19224;52.462;16.898;2024-02-26T10:49:15;99385.04;;;13.31;92.05
32873;BME280;19224;52.462;16.898;2024-02-26T10:51:57;99379.69;;;13.37;91.15
32873;BME280;19224;52.462;16.898;2024-02-26T10:54:33;99382.98;;;13.35;91.99
32873;BME280;19224;52.462;16.898;2024-02-26T10:57:05;99375.86;;;13.46;91.97
32873;BME280;19224;52.462;16.898;2024-02-26T10:59:37;99384.05;;;13.70;91.13
32873;BME280;19224;52.462;16.898;2024-02-26T11:02:11;99384.52;;;13.82;90.40
32873;BME280;19224;52.462;16.898;2024-02-26T11:04:45;99378.98;;;13.96;89.52
32873;BME280;19224;52.462;16.898;2024-02-26T11:07:18;99381.09;;;13.98;87.48
32873;BME280;19224;52.462;16.898;2024-02-26T11:09:50;99369.73;;;14.11;86.70
32873;BME280;19224;52.462;16.898;2024-02-26T11:12:22;99376.50;;;14.23;85.74
32873;BME280;19224;52.462;16.898;2024-02-26T11:14:54;99376.03;;;14.29;85.51
32873;BME280;19224;52.462;16.898;2024-02-26T11:17:29;99372.41;;;14.41;84.33
32873;BME280;19224;52.462;16.898;2024-02-26T11:20:01;99375.17;;;14.52;83.87
32873;BME280;19224;52.462;16.898;2024-02-26T11:22:36;99373.44;;;14.51;84.52
32873;BME280;19224;52.462;16.898;2024-02-26T11:25:07;99379.91;;;14.61;84.34
32873;BME280;19224;52.462;16.898;2024-02-26T11:27:43;99380.52;;;14.59;83.79
32873;BME280;19224;52.462;16.898;2024-02-26T11:30:18;99372.86;;;14.58;83.54
32873;BME280;19224;52.462;16.898;2024-02-26T11:32:55;99369.91;;;14.56;83.18
32873;BME280;19224;52.462;16.898;2024-02-26T11:35:27;99373.63;;;14.66;83.41
32873;BME280;19224;52.462;16.898;2024-02-26T11:37:57;99365.95;;;14.78;82.57
32873;BME280;19224;52.462;16.898;2024-02-26T11:40:31;99367.45;;;14.87;82.85
32873;BME280;19224;52.462;16.898;2024-02-26T11:43:01;99359.80;;;14.87;81.36
32873;BME280;19224;52.462;16.898;2024-02-26T11:48:24;99367.73;;;14.95;80.02
32873;BME280;19224;52.462;16.898;2024-02-26T11:50:56;99367.73;;;14.95;79.59
32873;BME280;19224;52.462;16.898;2024-02-26T11:53:34;99371.20;;;15.03;79.05
32873;BME280;19224;52.462;16.898;2024-02-26T11:56:21;99368.13;;;15.02;79.24
32873;BME280;19224;52.462;16.898;2024-02-26T11:59:10;99366.77;;;15.02;78.59
32873;BME280;19224;52.462;16.898;2024-02-26T12:01:46;99362.68;;;14.96;77.94
32873;BME280;19224;52.462;16.898;2024-02-26T12:04:30;99362.59;;;15.14;78.80
32873;BME280;19224;52.462;16.898;2024-02-26T12:07:03;99366.67;;;15.20;78.40
32873;BME280;19224;52.462;16.898;2024-02-26T12:09:39;99363.80;;;15.39;77.76
32873;BME280;19224;52.462;16.898;2024-02-26T12:12:13;99368.47;;;15.43;77.75
32873;BME280;19224;52.462;16.898;2024-02-26T12:14:57;99367.00;;;15.44;75.95
32873;BME280;19224;52.462;16.898;2024-02-26T12:17:28;99365.64;;;15.39;74.42
32873;BME280;19224;52.462;16.898;2024-02-26T12:20:12;99360.22;;;15.44;75.03
32873;BME280;19224;52.462;16.898;2024-02-26T12:22:49;99363.81;;;15.50;74.88
32873;BME280;19224;52.462;16.898;2024-02-26T12:25:27;99357.50;;;15.44;74.86
32873;BME280;19224;52.462;16.898;2024-02-26T12:27:59;99361.21;;;15.49;75.79
32873;BME280;19224;52.462;16.898;2024-02-26T12:30:34;99363.55;;;15.42;75.76
32873;BME280;19224;52.462;16.898;2024-02-26T12:33:05;99362.20;;;15.48;74.55
32873;BME280;19224;52.462;16.898;2024-02-26T12:35:37;99366.38;;;15.46;74.49
32873;BME280;19224;52.462;16.898;2024-02-26T12:38:11;99361.47;;;15.57;74.17
32873;BME280;19224;52.462;16.898;2024-02-26T12:40:46;99368.86;;;15.66;73.02
32873;BME280;19224;52.462;16.898;2024-02-26T12:43:18;99375.53;;;15.73;72.38
32873;BME280;19224;52.462;16.898;2024-02-26T12:45:48;99370.22;;;15.77;72.97
32873;BME280;19224;52.462;16.898;2024-02-26T12:48:20;99370.22;;;15.88;72.76
32873;BME280;19224;52.462;16.898;2024-02-26T12:50:50;99367.64;;;15.81;73.67
32873;BME280;19224;52.462;16.898;2024-02-26T12:53:32;99371.72;;;15.81;73.08
32873;BME280;19224;52.462;16.898;2024-02-26T12:56:04;99374.55;;;15.90;72.86
32873;BME280;19224;52.462;16.898;2024-02-26T12:58:39;99369.63;;;15.84;73.11
32873;BME280;19224;52.462;16.898;2024-02-26T13:01:19;99370.73;;;15.93;73.11
32873;BME280;19224;52.462;16.898;2024-02-26T13:03:53;99366.13;;;15.99;72.30
32873;BME280;19224;52.462;16.898;2024-02-26T13:06:24;99365.63;;;16.16;71.90
32873;BME280;19224;52.462;16.898;2024-02-26T13:08:57;99364.62;;;16.39;71.61
32873;BME280;19224;52.462;16.898;2024-02-26T13:11:29;99368.44;;;16.42;71.58
32873;BME280;19224;52.462;16.898;2024-02-26T13:14:00;99371.03;;;16.49;70.98
32873;BME280;19224;52.462;16.898;2024-02-26T13:16:30;99376.37;;;16.45;71.16